Time;durP1;ratioP1;P1;durP2;ratioP2;P2;SDS_P1;SDS_P2;PMS_P1;PMS_P2;Temp;Humidity;BMP_temperature;BMP_pressure;BME280_temperature;BME280_humidity;BME280_pressure;Samples;Min_cycle;Max_cycle;Signal;HPM_P1;HPM_P2
2022/09/08 00:01:11;;;;;;;6.22;4.03;;;;;;;12.18;74.24;96889.72;5130305;27;20059;-65
2022/09/08 00:03:41;;;;;;;6.40;4.55;;;;;;;12.20;74.12;96884.44;5130459;28;20050;-63
2022/09/08 00:06:10;;;;;;;6.03;4.78;;;;;;;12.23;74.00;96886.94;5130373;28;20461;-66
2022/09/08 00:08:38;;;;;;;6.35;4.68;;;;;;;12.28;74.23;96881.50;5130482;27;20054;-64
2022/09/08 00:11:08;;;;;;;6.07;4.68;;;;;;;12.29;74.35;96891.94;5125884;27;20060;-66
2022/09/08 00:13:38;;;;;;;4.70;4.07;;;;;;;12.26;74.21;96890.28;5116578;28;20040;-65
2022/09/08 00:16:07;;;;;;;8.48;4.78;;;;;;;12.26;73.93;96886.81;5116552;28;20050;-65
2022/09/08 00:18:35;;;;;;;4.95;3.90;;;;;;;12.23;74.02;96881.69;5116495;28;20058;-66
2022/09/08 00:21:03;;;;;;;7.20;4.72;;;;;;;12.25;73.57;96882.47;5116377;28;20130;-65
2022/09/08 00:23:31;;;;;;;5.97;3.95;;;;;;;12.19;73.62;96875.69;5116319;28;20047;-65
2022/09/08 00:25:58;;;;;;;5.35;4.25;;;;;;;12.07;74.81;96882.28;5116421;28;20126;-64
2022/09/08 00:28:25;;;;;;;6.57;4.03;;;;;;;11.97;77.38;96881.75;5116489;28;20101;-62
2022/09/08 00:30:54;;;;;;;11.00;5.07;;;;;;;12.00;76.97;96891.25;5116473;28;20051;-65
2022/09/08 00:33:22;;;;;;;5.03;4.35;;;;;;;12.09;76.33;96892.72;5116077;28;20552;-63
2022/09/08 00:35:51;;;;;;;5.88;4.53;;;;;;;12.11;75.35;96893.50;5116159;28;20447;-64
2022/09/08 00:38:20;;;;;;;7.15;4.65;;;;;;;12.09;75.69;96896.19;5116103;28;20086;-63
2022/09/08 00:40:49;;;;;;;5.65;4.03;;;;;;;12.07;75.32;96892.75;5115849;28;20060;-64
2022/09/08 00:43:35;;;;;;;11.90;5.10;;;;;;;12.10;75.33;96899.69;5116072;28;20485;-63
2022/09/08 00:46:18;;;;;;;4.88;4.40;;;;;;;12.07;75.55;96900.63;5116057;28;20466;-63
2022/09/08 00:48:50;;;;;;;7.40;4.70;;;;;;;12.10;75.29;96897.88;5115893;28;20052;-64
2022/09/08 00:51:18;;;;;;;6.43;4.45;;;;;;;12.09;74.85;96892.72;5115766;28;20051;-64
2022/09/08 00:53:48;;;;;;;5.20;4.70;;;;;;;12.05;74.81;96899.81;5115730;28;20039;-63
2022/09/08 00:56:17;;;;;;;6.03;4.88;;;;;;;12.07;75.04;96890.13;5115830;28;20484;-65
2022/09/08 00:58:45;;;;;;;9.50;4.65;;;;;;;12.12;74.49;96896.06;5115656;28;20048;-62
2022/09/08 01:01:12;;;;;;;7.25;4.22;;;;;;;12.10;74.65;96891.81;5115570;27;20097;-64
2022/09/08 01:03:41;;;;;;;5.88;4.50;;;;;;;12.13;74.67;96895.16;5115560;28;20130;-64
2022/09/08 01:06:21;;;;;;;6.82;4.78;;;;;;;12.07;74.26;96897.19;5115545;28;20050;-63
2022/09/08 01:14:51;;;;;;;8.98;4.70;;;;;;;11.91;74.71;96892.47;5088989;28;20052;-63
2022/09/08 01:17:20;;;;;;;6.03;4.30;;;;;;;11.84;76.54;96891.00;5115272;28;20130;-63
2022/09/08 01:19:48;;;;;;;6.13;3.95;;;;;;;11.82;76.29;96882.31;5115329;28;20101;-63
2022/09/08 01:22:28;;;;;;;6.43;4.72;;;;;;;11.75;76.00;96881.72;5114962;28;20126;-62
2022/09/08 01:25:07;;;;;;;6.18;4.38;;;;;;;11.73;76.24;96879.16;5114782;28;20090;-62
2022/09/08 01:27:39;;;;;;;7.13;4.43;;;;;;;11.71;75.87;96878.34;5115128;28;20047;-62
2022/09/08 01:30:09;;;;;;;10.63;4.38;;;;;;;11.67;76.34;96870.63;5115074;28;20047;-63
2022/09/08 01:32:38;;;;;;;6.93;4.32;;;;;;;11.68;77.20;96872.38;5114909;28;20086;-61
2022/09/08 01:35:07;;;;;;;8.00;4.65;;;;;;;11.68;76.72;96875.84;5114839;28;20485;-65
2022/09/08 01:37:34;;;;;;;6.13;4.00;;;;;;;11.74;77.24;96882.63;5114915;28;20058;-61
2022/09/08 01:40:01;;;;;;;5.78;4.00;;;;;;;11.78;76.62;96886.84;5114988;28;20075;-64
2022/09/08 01:42:28;;;;;;;7.82;4.18;;;;;;;11.79;75.98;96885.91;5114912;28;20065;-62
2022/09/08 01:44:56;;;;;;;4.68;4.15;;;;;;;11.77;75.80;96882.50;5114982;28;20086;-63
2022/09/08 01:47:23;;;;;;;5.20;4.57;;;;;;;11.81;75.80;96878.00;5114644;28;20040;-65
2022/09/08 01:49:50;;;;;;;6.78;4.13;;;;;;;11.81;75.53;96873.63;5114666;28;20044;-62
2022/09/08 01:52:17;;;;;;;5.45;4.07;;;;;;;11.83;75.25;96873.56;5114842;28;20047;-61
2022/09/08 01:54:44;;;;;;;7.07;3.70;;;;;;;11.82;74.85;96866.59;5114589;28;20074;-65
2022/09/08 01:57:11;;;;;;;7.75;4.40;;;;;;;11.77;74.73;96869.38;5114656;28;20047;-62
2022/09/08 01:59:38;;;;;;;6.75;4.53;;;;;;;11.70;74.99;96873.16;5114563;28;20165;-62
2022/09/08 02:02:07;;;;;;;6.95;4.45;;;;;;;11.73;75.28;96868.66;5114415;28;20565;-65
2022/09/08 02:04:34;;;;;;;8.32;4.80;;;;;;;11.71;75.08;96864.41;5114576;27;20044;-64
2022/09/08 02:07:01;;;;;;;5.07;4.18;;;;;;;11.72;75.21;96868.72;5114388;28;20039;-62
2022/09/08 02:09:28;;;;;;;4.70;4.30;;;;;;;11.69;75.07;96867.06;5114305;28;20096;-61
2022/09/08 02:11:55;;;;;;;5.15;3.88;;;;;;;11.68;75.29;96867.13;5114160;28;20058;-61
2022/09/08 02:14:22;;;;;;;7.13;4.35;;;;;;;11.67;75.52;96865.41;5114302;28;20075;-65
2022/09/08 02:16:49;;;;;;;5.18;3.65;;;;;;;11.63;75.10;96859.44;5114126;28;20077;-62
2022/09/08 02:19:18;;;;;;;4.68;4.18;;;;;;;11.59;75.03;96865.72;5114132;28;20043;-64
2022/09/08 02:21:45;;;;;;;5.00;4.10;;;;;;;11.58;75.31;96854.38;5114093;28;20058;-64
2022/09/08 02:24:12;;;;;;;6.80;4.53;;;;;;;11.59;74.76;96856.06;5114276;28;20134;-62
2022/09/08 02:26:40;;;;;;;9.05;4.47;;;;;;;11.53;75.22;96858.06;5114263;28;20134;-62
2022/09/08 02:29:08;;;;;;;6.18;4.28;;;;;;;11.48;76.47;96851.25;5114018;28;20052;-63
2022/09/08 02:31:36;;;;;;;7.18;4.28;;;;;;;11.48;75.64;96847.75;5113962;28;20046;-64
2022/09/08 02:34:03;;;;;;;8.30;3.97;;;;;;;11.42;76.06;96846.22;5113687;28;20467;-64
2022/09/08 02:36:32;;;;;;;8.27;4.03;;;;;;;11.44;75.85;96843.56;5113871;28;20075;-65
2022/09/08 02:38:59;;;;;;;7.82;3.97;;;;;;;11.41;75.85;96834.00;5113908;28;20139;-61
2022/09/08 02:41:29;;;;;;;6.57;4.10;;;;;;;11.40;75.69;96847.16;5113641;28;20087;-64
2022/09/08 02:43:56;;;;;;;4.93;4.40;;;;;;;11.38;75.51;96842.84;5113845;28;20079;-63
2022/09/08 02:46:24;;;;;;;6.95;4.43;;;;;;;11.37;75.61;96843.78;5113883;28;20039;-63
2022/09/08 02:48:51;;;;;;;6.75;4.00;;;;;;;11.41;76.05;96839.25;5113768;28;20500;-62
2022/09/08 02:51:19;;;;;;;5.65;4.40;;;;;;;11.40;75.94;96834.06;5113757;28;20104;-64
2022/09/08 02:53:47;;;;;;;6.55;4.88;;;;;;;11.39;76.95;96838.47;5113802;28;20454;-65
2022/09/08 02:56:15;;;;;;;11.00;4.93;;;;;;;11.42;77.19;96837.50;5113555;28;20050;-64
2022/09/08 02:58:42;;;;;;;6.25;4.03;;;;;;;11.37;75.96;96837.66;5113803;28;20066;-63
2022/09/08 03:01:09;;;;;;;8.07;4.18;;;;;;;11.33;76.19;96841.31;5113589;28;20079;-64
2022/09/08 03:03:37;;;;;;;3.92;3.42;;;;;;;11.28;76.44;96838.00;5113498;28;20120;-63
2022/09/08 03:06:04;;;;;;;4.80;3.95;;;;;;;11.27;76.77;96829.31;5113430;28;20048;-63
2022/09/08 03:08:31;;;;;;;6.35;4.13;;;;;;;11.27;77.60;96834.53;5113492;28;20123;-62
2022/09/08 03:11:00;;;;;;;5.90;4.25;;;;;;;11.32;77.91;96835.22;5113239;28;20045;-64
2022/09/08 03:13:28;;;;;;;5.65;4.13;;;;;;;11.34;78.00;96828.16;5113638;28;20075;-62
2022/09/08 03:15:55;;;;;;;5.78;3.80;;;;;;;11.37;77.12;96825.44;5113341;28;20132;-62
2022/09/08 03:18:22;;;;;;;6.97;3.83;;;;;;;11.32;76.71;96826.53;5113393;28;20055;-62
2022/09/08 03:21:00;;;;;;;5.07;4.43;;;;;;;11.27;76.42;96831.91;5113338;28;20142;-65
2022/09/08 03:23:27;;;;;;;6.03;3.97;;;;;;;11.27;76.24;96829.31;5113458;28;20044;-62
2022/09/08 03:25:54;;;;;;;4.00;3.67;;;;;;;11.22;76.16;96832.09;5113391;28;20044;-64
2022/09/08 03:28:25;;;;;;;4.82;4.20;;;;;;;11.24;76.99;96837.25;5113445;28;20047;-62
2022/09/08 03:30:52;;;;;;;;;;;;;;;11.29;77.16;96839.72;5113690;28;20528;-64
2022/09/08 03:33:19;;;;;;;6.40;4.10;;;;;;;11.27;76.88;96838.91;5113296;28;19920;-62
2022/09/08 03:35:48;;;;;;;6.72;4.20;;;;;;;11.27;76.73;96837.16;5113453;28;20044;-62
2022/09/08 03:38:16;;;;;;;7.88;4.25;;;;;;;11.26;76.16;96830.22;5113564;28;20122;-62
2022/09/08 03:40:43;;;;;;;11.88;3.95;;;;;;;11.24;77.49;96826.78;5113215;28;20047;-64
2022/09/08 03:43:11;;;;;;;5.10;4.13;;;;;;;11.23;77.87;96828.53;5113178;28;20131;-62
2022/09/08 03:45:44;;;;;;;5.35;3.90;;;;;;;11.26;76.21;96838.06;5113242;28;20048;-64
2022/09/08 03:48:12;;;;;;;5.88;3.45;;;;;;;11.25;76.09;96839.81;5117048;28;20052;-62
2022/09/08 03:50:39;;;;;;;4.18;3.72;;;;;;;11.26;75.77;96843.31;5117071;28;21319;-61
2022/09/08 03:53:06;;;;;;;6.13;4.45;;;;;;;11.20;75.88;96849.59;5116948;27;20470;-62
2022/09/08 03:55:34;;;;;;;5.00;3.67;;;;;;;11.21;75.96;96850.47;5116896;28;20060;-64
2022/09/08 03:58:01;;;;;;;4.60;4.03;;;;;;;11.19;76.44;96845.28;5116922;28;20050;-60
2022/09/08 04:00:29;;;;;;;6.18;4.13;;;;;;;11.28;76.97;96851.09;5116699;28;20040;-61
2022/09/08 04:02:57;;;;;;;6.68;4.00;;;;;;;11.24;76.31;96853.84;5116787;28;20043;-65
2022/09/08 04:05:25;;;;;;;5.82;4.28;;;;;;;11.24;76.18;96852.97;5116694;28;20126;-61
2022/09/08 04:07:52;;;;;;;6.95;4.03;;;;;;;11.25;76.40;96842.44;5116678;28;20047;-65
2022/09/08 04:10:20;;;;;;;6.97;4.32;;;;;;;11.31;76.22;96848.34;5116492;28;20048;-64
2022/09/08 04:12:47;;;;;;;4.65;4.03;;;;;;;11.31;75.87;96841.38;5116775;28;20048;-64
2022/09/08 04:15:15;;;;;;;4.30;3.13;;;;;;;11.33;75.72;96843.94;5116535;28;20147;-62
2022/09/08 04:17:42;;;;;;;8.50;3.92;;;;;;;11.30;75.22;96849.28;5116542;28;20078;-63
2022/09/08 04:20:13;;;;;;;6.05;3.90;;;;;;;11.29;75.59;96853.66;5116324;28;20043;-61
2022/09/08 04:22:40;;;;;;;5.70;3.90;;;;;;;11.34;75.55;96850.88;5116374;28;20404;-62
2022/09/08 04:25:08;;;;;;;7.07;3.17;;;;;;;11.34;75.88;96851.72;5116415;28;20455;-64
2022/09/08 04:27:36;;;;;;;5.15;4.57;;;;;;;11.40;76.96;96853.28;5116354;28;20051;-62
2022/09/08 04:30:03;;;;;;;5.68;3.83;;;;;;;11.47;77.43;96854.75;5116495;28;20051;-62
2022/09/08 04:32:30;;;;;;;9.57;4.30;;;;;;;11.55;78.19;96854.47;5116132;28;20062;-64
2022/09/08 04:34:57;;;;;;;6.40;3.88;;;;;;;11.82;76.77;96856.97;5116257;28;20040;-61
2022/09/08 04:37:26;;;;;;;9.77;3.67;;;;;;;12.28;75.91;96864.00;5116236;28;20044;-63
2022/09/08 04:39:53;;;;;;;6.82;3.45;;;;;;;12.89;74.74;96861.56;5116190;28;20552;-64
2022/09/08 04:42:21;;;;;;;4.35;3.42;;;;;;;13.63;71.41;96857.50;5116124;28;20074;-63
2022/09/08 04:44:48;;;;;;;6.53;3.63;;;;;;;14.35;68.81;96856.81;5115946;28;20127;-63
2022/09/08 04:47:15;;;;;;;7.45;3.70;;;;;;;15.08;66.82;96862.94;5116004;28;20051;-61
2022/09/08 04:49:42;;;;;;;6.05;3.95;;;;;;;15.77;63.85;96864.66;5115898;28;20081;-64
2022/09/08 04:52:09;;;;;;;3.95;2.72;;;;;;;16.46;61.12;96867.09;5115884;28;20146;-65
2022/09/08 04:54:38;;;;;;;4.32;3.00;;;;;;;17.13;59.44;96870.38;5115811;28;20043;-63
2022/09/08 04:57:05;;;;;;;7.82;3.30;;;;;;;17.48;59.68;96874.47;5115739;28;20043;-64
2022/09/08 04:59:33;;;;;;;6.40;3.25;;;;;;;18.00;58.29;96874.84;5115907;28;20104;-64
2022/09/08 05:02:00;;;;;;;8.00;2.67;;;;;;;18.76;55.80;96871.81;5115514;28;20142;-65
2022/09/08 05:04:27;;;;;;;4.38;2.72;;;;;;;19.42;53.90;96866.53;5115747;28;20127;-63
2022/09/08 05:06:54;;;;;;;4.22;2.58;;;;;;;20.12;52.51;96875.94;5115528;28;20048;-63
2022/09/08 05:09:22;;;;;;;5.88;2.70;;;;;;;20.75;50.56;96874.94;5115561;28;20150;-66
2022/09/08 05:11:50;;;;;;;5.00;2.40;;;;;;;21.36;49.50;96879.28;5115322;28;20048;-66
2022/09/08 05:14:17;;;;;;;4.57;2.95;;;;;;;21.95;48.60;96885.41;5115339;28;20105;-64
2022/09/08 05:16:44;;;;;;;4.35;2.63;;;;;;;22.52;46.69;96881.81;5115311;28;20051;-64
2022/09/08 05:19:13;;;;;;;4.45;2.40;;;;;;;23.04;45.24;96890.97;5115484;28;20075;-65
2022/09/08 05:21:40;;;;;;;3.88;2.92;;;;;;;23.42;44.15;96889.59;5115205;28;20056;-66
2022/09/08 05:24:07;;;;;;;3.70;2.42;;;;;;;23.84;43.50;96895.88;5115277;28;20439;-63
2022/09/08 05:26:35;;;;;;;3.97;2.83;;;;;;;24.33;42.60;96889.88;5115190;28;20104;-64
2022/09/08 05:29:04;;;;;;;5.82;3.10;;;;;;;24.71;42.67;96888.25;5115207;28;20404;-62
2022/09/08 05:31:32;;;;;;;6.50;2.90;;;;;;;25.13;41.06;96890.84;5115108;28;20051;-65
2022/09/08 05:33:59;;;;;;;3.22;2.63;;;;;;;25.58;40.47;96892.00;5115018;28;20044;-61
2022/09/08 05:36:28;;;;;;;3.38;2.70;;;;;;;25.88;40.30;96894.66;5115105;28;20077;-64
2022/09/08 05:38:55;;;;;;;3.47;2.72;;;;;;;26.23;39.54;96893.94;5114988;28;20075;-63
2022/09/08 05:41:24;;;;;;;4.75;2.88;;;;;;;26.41;39.24;96889.63;5114866;28;20532;-66
2022/09/08 05:43:56;;;;;;;5.35;2.92;;;;;;;26.80;38.52;96889.38;5114768;28;20052;-64
2022/09/08 05:46:26;;;;;;;6.75;3.10;;;;;;;27.17;37.53;96892.91;5114707;28;20461;-65
2022/09/08 05:48:53;;;;;;;6.88;2.67;;;;;;;27.40;38.26;96897.78;5114786;28;20071;-64
2022/09/08 05:51:21;;;;;;;5.82;2.97;;;;;;;27.52;37.54;96892.16;5114678;28;20044;-63
2022/09/08 05:53:49;;;;;;;4.80;3.22;;;;;;;27.81;37.38;96899.09;5114641;28;20078;-63
2022/09/08 05:56:18;;;;;;;4.57;2.97;;;;;;;28.07;36.75;96892.81;5114494;28;20051;-62
2022/09/08 05:58:51;;;;;;;5.35;2.75;;;;;;;28.28;36.79;96889.72;5114480;28;20093;-64
2022/09/08 06:01:18;;;;;;;4.00;2.55;;;;;;;28.35;35.79;96890.78;5114391;28;20039;-64
2022/09/08 06:03:46;;;;;;;4.65;3.15;;;;;;;28.20;35.33;96893.22;5114433;28;20142;-63
2022/09/08 06:06:14;;;;;;;6.70;2.80;;;;;;;28.33;35.57;96891.97;5114401;28;20097;-65
2022/09/08 06:08:42;;;;;;;6.55;2.75;;;;;;;28.22;36.04;96882.31;5114090;28;20485;-64
2022/09/08 06:11:10;;;;;;;8.52;2.72;;;;;;;28.28;35.85;96881.66;5113830;28;20044;-62
2022/09/08 06:13:37;;;;;;;4.43;3.03;;;;;;;28.30;35.70;96879.69;5114209;28;20043;-66
2022/09/08 06:16:08;;;;;;;3.92;3.15;;;;;;;28.17;36.99;96879.28;5114187;28;20394;-66
2022/09/08 06:18:35;;;;;;;;;;;;;;;28.19;37.33;96879.94;5114551;28;20047;-66
2022/09/08 06:21:09;;;;;;;3.08;2.70;;;;;;;28.09;35.57;96875.56;5114454;28;19927;-62
2022/09/08 06:23:36;;;;;;;5.07;2.88;;;;;;;28.15;36.35;96879.44;5113934;28;20127;-66
2022/09/08 06:26:28;;;;;;;4.65;2.83;;;;;;;28.05;34.17;96879.53;5114060;28;20054;-63
2022/09/08 06:29:03;;;;;;;4.15;2.70;;;;;;;27.89;34.06;96877.63;5114085;28;20075;-64
2022/09/08 06:31:33;;;;;;;4.13;2.63;;;;;;;27.95;33.88;96870.75;5114022;28;20134;-63
2022/09/08 06:34:04;;;;;;;3.20;2.42;;;;;;;28.17;34.15;96871.22;5114363;28;20087;-65
2022/09/08 06:36:41;;;;;;;3.60;2.53;;;;;;;28.22;34.17;96877.78;5114202;28;20182;-63
2022/09/08 06:39:14;;;;;;;3.58;2.55;;;;;;;28.38;34.36;96881.53;5113742;28;20048;-64
2022/09/08 06:41:47;;;;;;;3.78;2.80;;;;;;;28.55;34.45;96881.59;5113832;28;20097;-62
2022/09/08 06:44:20;;;;;;;5.82;3.17;;;;;;;28.67;34.81;96887.50;5113870;28;20126;-63
2022/09/08 06:46:48;;;;;;;4.10;2.47;;;;;;;28.67;34.43;96879.44;5113810;28;20485;-65
2022/09/08 06:49:15;;;;;;;4.45;2.70;;;;;;;28.76;34.11;96876.59;5113777;28;20493;-64
2022/09/08 06:51:55;;;;;;;6.22;3.20;;;;;;;28.81;34.23;96877.97;5113731;28;20059;-64
2022/09/08 06:54:43;;;;;;;7.00;2.97;;;;;;;28.73;34.96;96881.47;5113604;28;20050;-66
2022/09/08 06:57:23;;;;;;;4.60;2.70;;;;;;;28.61;35.08;96875.56;5113698;28;20413;-65
2022/09/08 07:00:01;;;;;;;7.18;2.92;;;;;;;28.71;34.64;96884.31;5113675;28;20079;-63
2022/09/08 07:02:45;;;;;;;4.85;3.10;;;;;;;28.74;34.99;96888.53;5113679;28;20095;-64
2022/09/08 07:05:26;;;;;;;6.55;3.45;;;;;;;28.72;34.41;96891.38;5113538;28;20082;-62
2022/09/08 07:08:03;;;;;;;5.20;2.97;;;;;;;28.77;34.55;96893.56;5113762;28;20040;-66
2022/09/08 07:10:36;;;;;;;4.35;2.78;;;;;;;28.67;32.86;96895.56;5113177;28;20040;-62
2022/09/08 07:13:13;;;;;;;4.50;3.17;;;;;;;28.38;34.95;96897.69;5113504;28;20097;-64
2022/09/08 07:15:54;;;;;;;4.03;3.00;;;;;;;28.43;34.23;96894.50;5113494;28;20477;-62
2022/09/08 07:18:24;;;;;;;6.00;2.92;;;;;;;28.74;32.66;96899.28;5113636;28;20550;-64
2022/09/08 07:21:04;;;;;;;7.20;3.05;;;;;;;28.78;33.58;96895.28;5113395;28;20043;-64
2022/09/08 07:23:37;;;;;;;4.40;2.88;;;;;;;28.73;33.83;96889.53;5117601;28;20047;-65
2022/09/08 07:26:09;;;;;;;4.50;2.97;;;;;;;28.82;34.33;96888.56;5117557;28;20052;-62
2022/09/08 07:28:43;;;;;;;9.32;3.20;;;;;;;28.95;34.21;96895.34;5117578;28;20043;-66
2022/09/08 07:31:19;;;;;;;5.25;2.97;;;;;;;28.98;34.48;96893.13;5117421;28;20047;-64
2022/09/08 07:33:49;;;;;;;6.38;3.47;;;;;;;29.05;34.65;96895.16;5117683;28;20431;-61
2022/09/08 07:36:26;;;;;;;6.75;3.53;;;;;;;28.93;34.29;96892.81;5117314;28;20446;-63
2022/09/08 07:38:56;;;;;;;7.82;3.33;;;;;;;28.83;34.07;96890.22;5117338;28;20127;-61
2022/09/08 07:41:29;;;;;;;7.25;3.10;;;;;;;28.68;34.33;96892.72;5117229;28;20044;-63
2022/09/08 07:43:59;;;;;;;8.88;3.13;;;;;;;28.77;33.18;96896.25;5117055;28;20051;-63
2022/09/08 07:46:33;;;;;;;;;;;;;;;28.83;35.14;96895.59;5117623;28;20051;-64
2022/09/08 07:49:08;;;;;;;6.72;3.85;;;;;;;28.88;34.91;96893.28;5116983;28;19920;-64
2022/09/08 07:51:43;;;;;;;9.52;4.28;;;;;;;28.83;34.90;96895.59;5117101;28;20458;-61
2022/09/08 07:54:37;;;;;;;10.23;5.97;;;;;;;28.60;35.99;96901.59;5117067;28;20051;-65
2022/09/08 07:57:10;;;;;;;8.70;4.50;;;;;;;28.51;34.98;96900.75;5116956;27;20062;-64
2022/09/08 07:59:44;;;;;;;6.55;4.57;;;;;;;28.54;35.08;96898.75;5116844;28;20552;-64
2022/09/08 08:02:35;;;;;;;11.73;6.28;;;;;;;28.59;37.46;96899.13;5116879;28;20047;-65
2022/09/08 08:05:12;;;;;;;7.70;4.85;;;;;;;28.65;34.95;96893.06;5116701;28;20118;-62
2022/09/08 08:07:51;;;;;;;7.88;3.92;;;;;;;28.83;33.82;96894.78;5116867;27;20534;-65
2022/09/08 08:10:26;;;;;;;9.82;5.72;;;;;;;28.89;35.01;96888.72;5116358;28;20089;-62
2022/09/08 08:12:58;;;;;;;10.88;5.20;;;;;;;28.81;34.23;96897.66;5116609;28;20048;-63
2022/09/08 08:15:31;;;;;;;10.48;5.70;;;;;;;28.63;36.09;96890.53;5116610;28;20230;-65
2022/09/08 08:18:09;;;;;;;13.75;5.57;;;;;;;28.74;35.44;96893.91;5116542;28;20412;-64
2022/09/08 08:20:45;;;;;;;11.35;5.78;;;;;;;28.76;35.60;96899.97;5116453;28;20052;-63
2022/09/08 08:23:41;;;;;;;11.80;5.28;;;;;;;28.82;34.77;96907.38;5116495;27;20047;-63
2022/09/08 08:26:23;;;;;;;11.05;5.10;;;;;;;28.66;34.70;96905.50;5109986;28;20071;-63
2022/09/08 08:29:00;;;;;;;7.53;4.00;;;;;;;28.63;34.86;96895.09;5116491;28;20116;-66
2022/09/08 08:31:38;;;;;;;12.60;4.60;;;;;;;28.70;34.64;96896.09;5116231;28;20093;-62
2022/09/08 08:34:11;;;;;;;6.28;3.30;;;;;;;28.73;33.30;96895.78;5116053;28;20097;-62
2022/09/08 08:36:43;;;;;;;7.35;3.50;;;;;;;28.44;32.93;96897.03;5116275;28;20481;-65
2022/09/08 08:39:16;;;;;;;4.50;3.30;;;;;;;28.45;35.79;96895.19;5116423;28;20554;-66
2022/09/08 08:42:01;;;;;;;6.22;3.58;;;;;;;28.57;35.58;96893.03;5116150;28;20047;-65
2022/09/08 08:44:42;;;;;;;5.85;3.47;;;;;;;28.39;34.94;96902.06;5115966;28;20127;-63
2022/09/08 08:47:22;;;;;;;7.57;3.50;;;;;;;27.93;35.91;96895.09;5116000;28;20197;-63
2022/09/08 08:50:18;;;;;;;9.45;3.53;;;;;;;27.72;34.62;96895.53;5115879;28;20044;-66
2022/09/08 08:53:01;;;;;;;7.65;3.67;;;;;;;27.66;34.63;96883.53;5115982;28;20386;-65
2022/09/08 08:55:50;;;;;;;6.15;3.38;;;;;;;26.97;36.79;96886.84;5115783;28;20075;-61
2022/09/08 08:58:50;;;;;;;6.03;3.10;;;;;;;26.86;36.02;96880.72;5115785;28;20044;-64
2022/09/08 09:01:39;;;;;;;6.45;3.38;;;;;;;26.41;37.11;96882.44;5115923;28;20051;-65
2022/09/08 09:04:33;;;;;;;5.07;3.17;;;;;;;26.46;39.35;96882.81;5115588;28;20051;-61
2022/09/08 09:07:34;;;;;;;9.65;3.67;;;;;;;26.69;38.00;96874.34;5115637;28;20079;-62
2022/09/08 09:10:26;;;;;;;10.32;3.88;;;;;;;26.96;37.53;96871.72;5095152;28;20101;-62
2022/09/08 09:13:30;;;;;;;6.47;4.75;;;;;;;26.90;37.38;96865.13;5115442;27;20052;-64
2022/09/08 09:16:12;;;;;;;7.13;3.40;;;;;;;26.74;37.14;96857.78;5094794;28;20044;-63
2022/09/08 09:19:18;;;;;;;5.40;3.53;;;;;;;26.85;38.20;96854.88;5115398;28;20127;-60
2022/09/08 09:21:52;;;;;;;6.60;2.90;;;;;;;26.91;36.21;96856.09;5115292;28;20126;-64
2022/09/08 09:24:57;;;;;;;6.75;3.30;;;;;;;26.76;35.71;96853.13;5115237;28;20044;-63
2022/09/08 09:27:41;;;;;;;6.32;3.20;;;;;;;26.58;35.74;96845.06;5083605;28;20116;-64
2022/09/08 09:30:19;;;;;;;7.80;3.17;;;;;;;26.19;36.60;96843.44;5115171;28;20130;-64
2022/09/08 09:33:25;;;;;;;3.35;3.03;;;;;;;25.96;38.51;96839.34;5115102;28;20050;-63
2022/09/08 09:36:14;;;;;;;4.53;3.17;;;;;;;25.79;36.87;96842.81;5115102;27;20089;-62
2022/09/08 09:39:00;;;;;;;3.67;3.28;;;;;;;25.98;39.01;96850.72;5114934;28;20477;-61
2022/09/08 09:41:50;;;;;;;6.20;3.33;;;;;;;26.27;39.28;96843.53;5114827;28;20051;-66
2022/09/08 09:44:55;;;;;;;3.33;2.95;;;;;;;26.63;36.66;96845.44;5113945;28;20481;-65
2022/09/08 09:47:50;;;;;;;5.75;2.85;;;;;;;26.54;36.75;96831.09;5092770;28;20036;-63
2022/09/08 09:50:54;;;;;;;3.65;2.78;;;;;;;26.33;34.94;96834.06;5086750;27;20040;-61
2022/09/08 09:53:44;;;;;;;7.25;2.80;;;;;;;26.29;36.48;96830.88;5114619;28;20047;-63
2022/09/08 09:57:04;;;;;;;11.20;2.88;;;;;;;26.07;35.23;96826.72;5114836;28;20454;-64
2022/09/08 10:00:05;;;;;;;3.75;3.00;;;;;;;26.06;38.25;96822.34;5114559;28;20556;-66
2022/09/08 10:03:08;;;;;;;3.95;2.90;;;;;;;26.04;38.26;96832.38;5114274;28;20043;-62
2022/09/08 10:06:23;;;;;;;3.05;2.70;;;;;;;26.32;35.94;96824.34;5114325;28;20057;-63
2022/09/08 10:09:35;;;;;;;6.78;2.97;;;;;;;26.55;36.65;96821.22;5033681;28;20136;-67
2022/09/08 10:12:40;;;;;;;4.63;2.50;;;;;;;26.78;35.66;96812.72;5051432;28;20084;-66
2022/09/08 10:15:34;;;;;;;6.47;2.90;;;;;;;26.74;35.59;96820.22;5114295;27;20050;-66
2022/09/08 10:18:38;;;;;;;5.63;3.00;;;;;;;26.58;33.29;96819.06;5114220;28;20093;-63
2022/09/08 10:21:51;;;;;;;7.80;3.53;;;;;;;26.58;36.50;96810.22;5114394;28;20097;-63
2022/09/08 10:24:43;;;;;;;4.40;2.72;;;;;;;26.92;35.05;96808.63;5066591;28;20056;-63
2022/09/08 10:27:56;;;;;;;5.75;3.28;;;;;;;27.15;33.80;96813.53;5113998;28;20105;-63
2022/09/08 10:31:03;;;;;;;8.70;2.65;;;;;;;26.96;33.49;96801.97;5113908;28;20039;-64
2022/09/08 10:34:03;;;;;;;3.20;2.40;;;;;;;26.92;33.92;96804.13;5114009;28;20047;-63
2022/09/08 10:36:48;;;;;;;4.05;2.88;;;;;;;26.85;34.21;96798.53;5093591;28;20058;-63
2022/09/08 10:39:30;;;;;;;4.07;2.97;;;;;;;26.79;35.32;96796.44;5113947;28;20044;-65
2022/09/08 10:42:42;;;;;;;5.30;3.03;;;;;;;26.87;36.14;96793.00;5113895;28;20048;-66
2022/09/08 10:45:21;;;;;;;5.13;2.65;;;;;;;26.93;33.44;96787.03;5111274;28;20055;-64
2022/09/08 10:48:28;;;;;;;7.95;2.58;;;;;;;27.03;35.01;96786.13;5113838;28;20447;-64
2022/09/08 10:51:01;;;;;;;2.95;2.42;;;;;;;27.19;35.83;96778.19;5114096;28;20051;-64
2022/09/08 10:53:42;;;;;;;3.78;2.90;;;;;;;27.32;34.94;96774.22;5113832;28;20039;-64
2022/09/08 10:56:12;;;;;;;3.45;2.80;;;;;;;27.35;32.32;96763.16;5113485;28;20093;-65
2022/09/08 10:59:20;;;;;;;6.10;2.60;;;;;;;27.37;34.19;96764.69;5113664;28;20047;-65
2022/09/08 11:02:14;;;;;;;11.15;2.92;;;;;;;27.33;31.66;96763.31;5113736;28;20560;-66
2022/09/08 11:05:14;;;;;;;6.40;2.90;;;;;;;27.33;34.03;96757.94;5110680;28;20484;-66
2022/09/08 11:08:14;;;;;;;4.25;2.00;;;;;;;27.27;33.21;96755.06;5113661;28;20092;-66
2022/09/08 11:10:57;;;;;;;7.10;2.60;;;;;;;27.07;32.32;96757.97;5087395;28;20052;-61
2022/09/08 11:13:31;;;;;;;4.03;2.38;;;;;;;26.80;33.89;96751.69;5113496;28;20093;-65
2022/09/08 11:16:26;;;;;;;4.88;2.53;;;;;;;27.04;33.33;96744.84;5113545;28;20396;-62
2022/09/08 11:19:08;;;;;;;3.78;2.58;;;;;;;27.17;34.37;96741.75;5113429;28;20413;-65
2022/09/08 11:21:47;;;;;;;6.95;2.92;;;;;;;27.27;32.11;96737.09;5113548;28;20050;-63
2022/09/08 11:24:22;;;;;;;6.30;2.72;;;;;;;27.29;32.88;96739.63;5113366;28;20051;-65
2022/09/08 11:26:59;;;;;;;4.80;3.03;;;;;;;27.32;34.13;96734.78;5113328;28;20071;-63
2022/09/08 11:29:34;;;;;;;12.07;3.25;;;;;;;27.44;33.54;96729.13;5113460;28;20499;-63
2022/09/08 11:32:10;;;;;;;4.05;2.50;;;;;;;27.35;34.11;96731.78;5113449;28;20073;-64
2022/09/08 11:35:08;;;;;;;4.22;2.53;;;;;;;27.45;32.08;96723.59;5113217;28;20503;-63
2022/09/08 11:37:58;;;;;;;8.43;3.17;;;;;;;27.42;32.92;96725.78;5113269;28;20051;-64
2022/09/08 11:40:50;;;;;;;3.38;2.40;;;;;;;27.41;34.13;96722.25;5113280;28;20126;-63
2022/09/08 11:43:30;;;;;;;8.68;2.38;;;;;;;27.52;32.64;96715.75;5099733;28;20040;-64
2022/09/08 11:46:27;;;;;;;2.60;2.40;;;;;;;27.62;34.61;96716.47;5113174;28;20130;-65
2022/09/08 11:49:37;;;;;;;3.13;2.45;;;;;;;27.61;33.75;96709.41;5112199;28;20048;-65
2022/09/08 11:52:35;;;;;;;6.82;2.80;;;;;;;27.73;30.44;96717.19;5113393;28;20098;-66
2022/09/08 11:55:16;;;;;;;5.05;2.65;;;;;;;27.61;32.49;96705.88;5113245;28;20048;-65
2022/09/08 11:57:55;;;;;;;3.95;2.60;;;;;;;27.50;31.47;96707.00;5113043;28;20500;-63
2022/09/08 12:01:11;;;;;;;3.38;2.50;;;;;;;27.21;31.24;96708.22;5113088;28;20040;-63
2022/09/08 12:04:13;;;;;;;4.82;2.63;;;;;;;27.31;33.19;96706.25;5092541;28;20047;-64
2022/09/08 12:07:08;;;;;;;3.80;2.85;;;;;;;27.40;33.65;96700.91;5108298;28;20130;-63
2022/09/08 12:09:56;;;;;;;7.43;2.60;;;;;;;27.50;32.33;96699.81;5116838;28;20439;-65
2022/09/08 12:12:41;;;;;;;5.28;2.53;;;;;;;27.51;32.15;96700.63;5075974;28;20107;-62
2022/09/08 12:15:24;;;;;;;5.72;2.47;;;;;;;27.59;32.68;96699.81;5075906;28;20052;-62
2022/09/08 12:18:07;;;;;;;6.72;2.53;;;;;;;27.60;32.92;96696.97;5075899;28;20571;-65
2022/09/08 12:20:51;;;;;;;4.43;2.83;;;;;;;27.60;31.33;96683.53;5075960;28;20048;-66
2022/09/08 12:23:36;;;;;;;6.45;2.53;;;;;;;27.74;31.61;96681.25;5075883;28;20052;-63